createdAt,value
2019-04-07T00:00:52.987Z,62.01
2019-04-07T00:01:52.659Z,61.28
2019-04-07T00:02:52.761Z,61.52
2019-04-07T00:03:53.262Z,60.55
2019-04-07T00:04:53.480Z,60.79
2019-04-07T00:05:53.793Z,62.26
2019-04-07T00:06:53.396Z,61.77
2019-04-07T00:07:54.123Z,61.52
2019-04-07T00:08:53.772Z,61.77
2019-04-07T00:09:54.206Z,60.55
2019-04-07T00:10:54.130Z,60.79
2019-04-07T00:11:54.287Z,61.04
2019-04-07T00:12:54.469Z,62.01
2019-04-07T00:13:55.145Z,62.01
2019-04-07T00:14:55.270Z,61.52
2019-04-07T00:15:54.942Z,61.28
2019-04-07T00:16:55.837Z,60.55
2019-04-07T00:17:55.373Z,61.04
2019-04-07T00:18:55.686Z,61.28
2019-04-07T00:19:55.743Z,61.52
2019-04-07T00:20:55.794Z,60.55
2019-04-07T00:21:55.965Z,60.79
2019-04-07T00:22:56.145Z,61.52
2019-04-07T00:23:56.321Z,61.52
2019-04-07T00:24:56.481Z,61.04
2019-04-07T00:25:56.737Z,60.55
2019-04-07T00:26:56.814Z,61.04
2019-04-07T00:27:57.501Z,61.04
2019-04-07T00:28:57.660Z,61.52
2019-04-07T00:29:57.924Z,60.79
2019-04-07T00:30:57.538Z,61.28
2019-04-07T00:31:57.765Z,61.28
2019-04-07T00:32:58.375Z,61.52
2019-04-07T00:33:58.209Z,61.04
2019-04-07T00:34:58.599Z,61.52
2019-04-07T00:35:58.260Z,61.28
2019-04-07T00:36:58.817Z,61.28
2019-04-07T00:37:58.602Z,63.23
2019-04-07T00:38:59.396Z,61.52
2019-04-07T00:39:59.004Z,61.04
2019-04-07T00:40:59.253Z,60.79
2019-04-07T00:41:59.275Z,60.55
2019-04-07T00:42:59.893Z,61.04
2019-04-07T00:43:59.983Z,61.28
2019-04-07T00:44:59.763Z,60.79
2019-04-07T00:45:59.858Z,60.79
2019-04-07T00:47:00.031Z,61.04
2019-04-07T00:48:00.437Z,61.04
2019-04-07T00:49:00.349Z,61.28
2019-04-07T00:50:00.843Z,61.04
2019-04-07T00:51:01.412Z,61.28
2019-04-07T00:52:00.880Z,61.52
2019-04-07T00:53:01.287Z,61.28
2019-04-07T00:54:01.899Z,61.04
2019-04-07T00:55:01.520Z,61.28
2019-04-07T00:56:01.518Z,61.28
2019-04-07T00:57:01.946Z,61.52
2019-04-07T00:58:02.427Z,61.28
2019-04-07T00:59:02.676Z,61.52
2019-04-07T01:00:02.851Z,61.04
2019-04-07T01:01:02.390Z,62.01
2019-04-07T01:02:02.626Z,60.55
2019-04-07T01:03:02.946Z,61.28
2019-04-07T01:04:03.550Z,61.04
2019-04-07T01:05:03.088Z,61.04
2019-04-07T01:06:03.405Z,61.04
2019-04-07T01:07:03.651Z,61.77
2019-04-07T01:08:04.276Z,61.28
2019-04-07T01:09:04.461Z,60.55
2019-04-07T01:10:03.923Z,62.01
2019-04-07T01:11:04.602Z,61.77
2019-04-07T01:12:04.225Z,62.74
2019-04-07T01:13:04.510Z,62.01
2019-04-07T01:14:04.584Z,61.77
2019-04-07T01:15:04.888Z,61.52
2019-04-07T01:16:04.936Z,61.77
2019-04-07T01:17:05.085Z,61.28
2019-04-07T01:18:05.386Z,61.04
2019-04-07T01:19:05.741Z,61.52
2019-04-07T01:20:06.123Z,61.28
2019-04-07T01:21:05.733Z,60.79
2019-04-07T01:22:06.498Z,61.04
2019-04-07T01:23:06.081Z,61.04
2019-04-07T01:24:06.518Z,61.52
2019-04-07T01:25:07.084Z,60.79
2019-04-07T01:26:06.581Z,61.28
2019-04-07T01:27:06.744Z,61.04
2019-04-07T01:28:06.900Z,61.77
2019-04-07T01:29:07.057Z,61.28
2019-04-07T01:30:07.269Z,61.28
2019-04-07T01:31:07.381Z,61.52
2019-04-07T01:32:08.084Z,61.28
2019-04-07T01:33:07.685Z,62.01
2019-04-07T01:34:07.793Z,62.01
2019-04-07T01:35:07.940Z,61.04
2019-04-07T01:36:08.269Z,61.04
2019-04-07T01:37:08.738Z,62.01
2019-04-07T01:38:08.416Z,62.01
2019-04-07T01:39:08.714Z,61.77
2019-04-07T01:40:09.087Z,61.52
2019-04-07T01:41:08.823Z,61.52
2019-04-07T01:42:09.172Z,61.52
2019-04-07T01:43:09.224Z,61.77
2019-04-07T01:44:09.302Z,62.01
2019-04-07T01:45:09.490Z,61.28
2019-04-07T01:46:09.852Z,61.28
2019-04-07T01:47:09.869Z,61.04
2019-04-07T01:48:10.309Z,61.52
2019-04-07T01:49:10.935Z,61.52
2019-04-07T01:50:10.940Z,61.04
2019-04-07T01:51:10.491Z,61.28
2019-04-07T01:52:10.868Z,61.04
2019-04-07T01:53:10.868Z,61.52
2019-04-07T01:54:11.680Z,61.77
2019-04-07T01:55:11.344Z,61.04
2019-04-07T01:56:14.098Z,61.04
2019-04-07T01:57:15.594Z,61.28
2019-04-07T01:58:15.481Z,61.52
2019-04-07T01:59:14.459Z,62.01
2019-04-07T02:00:12.714Z,61.04
2019-04-07T02:01:17.325Z,60.79
2019-04-07T02:02:12.538Z,61.28
2019-04-07T02:03:12.461Z,61.28
2019-04-07T02:04:12.761Z,61.28
2019-04-07T02:05:13.401Z,61.28
2019-04-07T02:06:12.900Z,60.79
2019-04-07T02:07:13.075Z,60.79
2019-04-07T02:08:13.248Z,60.79
2019-04-07T02:09:13.657Z,60.79
2019-04-07T02:10:13.695Z,60.55
2019-04-07T02:11:13.710Z,60.55
2019-04-07T02:12:13.883Z,60.79
2019-04-07T02:13:14.086Z,60.79
2019-04-07T02:14:14.668Z,61.04
2019-04-07T02:15:14.397Z,60.30
2019-04-07T02:16:14.561Z,60.79
2019-04-07T02:17:14.692Z,61.52
2019-04-07T02:18:14.859Z,61.77
2019-04-07T02:19:15.073Z,61.52
2019-04-07T02:20:15.663Z,61.52
2019-04-07T02:21:15.390Z,62.26
2019-04-07T02:22:15.855Z,62.26
2019-04-07T02:23:16.268Z,62.01
2019-04-07T02:24:15.848Z,61.77
2019-04-07T02:25:16.191Z,61.77
2019-04-07T02:26:16.370Z,61.77
2019-04-07T02:27:16.494Z,61.77
2019-04-07T02:28:16.567Z,61.52
2019-04-07T02:29:17.035Z,61.52
2019-04-07T02:30:16.895Z,61.77
2019-04-07T02:31:17.214Z,61.28
2019-04-07T02:32:17.383Z,61.77
2019-04-07T02:33:18.127Z,61.52
2019-04-07T02:34:17.779Z,62.01
2019-04-07T02:35:17.773Z,61.52
2019-04-07T02:36:25.723Z,61.77
2019-04-07T02:37:18.044Z,61.52
2019-04-07T02:38:19.149Z,61.77
2019-04-07T02:39:19.403Z,62.01
2019-04-07T02:40:19.136Z,62.01
2019-04-07T02:41:18.721Z,61.52
2019-04-07T02:42:19.028Z,62.26
2019-04-07T02:43:19.471Z,62.01
2019-04-07T02:44:19.165Z,61.52
2019-04-07T02:45:19.739Z,61.77
2019-04-07T02:46:20.279Z,62.50
2019-04-07T02:47:20.056Z,61.77
2019-04-07T02:48:19.998Z,61.52
2019-04-07T02:49:20.047Z,61.52
2019-04-07T02:50:20.179Z,62.26
2019-04-07T02:51:20.756Z,61.77
2019-04-07T02:52:20.475Z,61.77
2019-04-07T02:53:21.450Z,62.26
2019-04-07T02:54:20.788Z,62.01
2019-04-07T02:55:21.693Z,61.77
2019-04-07T02:56:21.116Z,62.99
2019-04-07T02:57:22.117Z,61.52
2019-04-07T02:58:21.468Z,61.52
2019-04-07T02:59:21.700Z,61.77
2019-04-07T03:00:22.286Z,62.01
2019-04-07T03:01:22.099Z,61.52
2019-04-07T03:02:22.100Z,61.52
2019-04-07T03:03:22.797Z,62.26
2019-04-07T03:04:23.124Z,62.01
2019-04-07T03:05:22.638Z,62.01
2019-04-07T03:06:37.710Z,61.77
2019-04-07T03:07:23.743Z,61.52
2019-04-07T03:08:23.693Z,62.01
2019-04-07T03:09:23.334Z,62.74
2019-04-07T03:10:23.509Z,62.50
2019-04-07T03:11:24.743Z,62.01
2019-04-07T03:12:23.949Z,61.28
2019-04-07T03:13:24.429Z,62.01
2019-04-07T03:14:24.936Z,62.01
2019-04-07T03:15:24.937Z,63.23
2019-04-07T03:16:24.481Z,62.01
2019-04-07T03:17:25.640Z,62.01
2019-04-07T03:18:26.919Z,62.74
2019-04-07T03:19:25.436Z,62.01
2019-04-07T03:20:25.179Z,61.52
2019-04-07T03:21:25.207Z,61.77
2019-04-07T03:22:25.726Z,61.52
2019-04-07T03:23:26.435Z,62.26
2019-04-07T03:24:26.559Z,61.77
2019-04-07T03:25:26.067Z,61.77
2019-04-07T03:26:25.995Z,62.74
2019-04-07T03:27:26.996Z,62.26
2019-04-07T03:28:27.111Z,61.77
2019-04-07T03:29:26.924Z,61.52
2019-04-07T03:30:28.361Z,61.52
2019-04-07T03:31:27.490Z,62.01
2019-04-07T03:32:27.915Z,62.74
2019-04-07T03:33:28.441Z,61.77
2019-04-07T03:34:30.611Z,62.26
2019-04-07T03:35:30.156Z,62.26
2019-04-07T03:36:30.011Z,62.26
2019-04-07T03:37:36.350Z,62.01
2019-04-07T03:38:27.869Z,62.26
2019-04-07T03:39:28.068Z,62.01
2019-04-07T03:40:28.238Z,61.77
2019-04-07T03:41:29.138Z,61.77
2019-04-07T03:42:29.704Z,62.01
2019-04-07T03:43:29.114Z,61.77
2019-04-07T03:44:29.135Z,62.26
2019-04-07T03:45:29.103Z,62.50
2019-04-07T03:46:29.456Z,62.26
2019-04-07T03:47:30.123Z,62.01
2019-04-07T03:48:30.395Z,62.50
2019-04-07T03:49:29.807Z,62.26
2019-04-07T03:50:30.017Z,62.50
2019-04-07T03:51:30.252Z,62.50
2019-04-07T03:52:30.338Z,62.26
2019-04-07T03:53:30.597Z,62.50
2019-04-07T03:54:31.590Z,62.26
2019-04-07T03:55:31.106Z,62.01
2019-04-07T03:56:31.078Z,62.74
2019-04-07T03:57:31.292Z,62.50
2019-04-07T03:58:32.218Z,72.02
2019-04-07T03:59:31.587Z,63.23
2019-04-07T04:00:31.795Z,62.01
2019-04-07T04:01:33.023Z,61.77
2019-04-07T04:02:32.089Z,62.50
2019-04-07T04:03:32.328Z,62.01
2019-04-07T04:04:32.419Z,62.26
2019-04-07T04:05:32.766Z,61.77
2019-04-07T04:06:32.741Z,62.26
2019-04-07T04:07:36.583Z,62.26
2019-04-07T04:08:33.098Z,62.50
2019-04-07T04:09:37.008Z,62.50
2019-04-07T04:10:34.359Z,62.26
2019-04-07T04:11:34.286Z,62.01
2019-04-07T04:12:34.230Z,61.77
2019-04-07T04:13:34.345Z,63.72
2019-04-07T04:14:34.719Z,61.77
2019-04-07T04:15:34.281Z,62.50
2019-04-07T04:16:34.387Z,62.01
2019-04-07T04:17:36.965Z,62.26
2019-04-07T04:18:38.064Z,61.77
2019-04-07T04:19:36.373Z,62.50
2019-04-07T04:20:35.043Z,61.77
2019-04-07T04:21:36.224Z,62.26
2019-04-07T04:22:35.919Z,62.01
2019-04-07T04:23:35.700Z,64.45
2019-04-07T04:24:35.772Z,61.52
2019-04-07T04:25:35.921Z,62.50
2019-04-07T04:26:36.104Z,63.72
2019-04-07T04:27:36.856Z,61.77
2019-04-07T04:28:36.854Z,62.01
2019-04-07T04:29:37.315Z,61.77
2019-04-07T04:30:37.109Z,61.77
2019-04-07T04:31:37.160Z,66.41
2019-04-07T04:32:37.238Z,62.99
2019-04-07T04:33:37.760Z,62.26
2019-04-07T04:34:37.452Z,63.23
2019-04-07T04:35:38.783Z,61.77
2019-04-07T04:36:38.070Z,62.26
2019-04-07T04:37:44.186Z,62.74
2019-04-07T04:38:38.537Z,64.21
2019-04-07T04:39:38.781Z,63.72
2019-04-07T04:40:38.384Z,62.74
2019-04-07T04:41:38.624Z,63.72
2019-04-07T04:42:38.733Z,62.26
2019-04-07T04:43:39.303Z,62.01
2019-04-07T04:44:40.274Z,62.26
2019-04-07T04:45:39.252Z,62.01
2019-04-07T04:46:39.421Z,61.77
2019-04-07T04:47:40.481Z,62.99
2019-04-07T04:48:40.926Z,62.01
2019-04-07T04:49:40.354Z,64.94
2019-04-07T04:50:40.095Z,61.77
2019-04-07T04:51:41.004Z,62.01
2019-04-07T04:52:40.774Z,62.26
2019-04-07T04:53:40.645Z,62.01
2019-04-07T04:54:40.954Z,62.74
2019-04-07T04:55:40.975Z,62.01
2019-04-07T04:56:41.404Z,65.19
2019-04-07T04:57:41.330Z,62.01
2019-04-07T04:58:42.405Z,62.74
2019-04-07T04:59:42.245Z,65.43
2019-04-07T05:00:42.780Z,65.92
2019-04-07T05:01:42.234Z,66.65
2019-04-07T05:02:42.449Z,64.45
2019-04-07T05:03:42.823Z,63.72
2019-04-07T05:04:42.564Z,62.26
2019-04-07T05:05:43.173Z,62.50
2019-04-07T05:06:43.409Z,62.74
2019-04-07T05:07:54.937Z,62.01
2019-04-07T05:08:44.359Z,62.50
2019-04-07T05:09:49.693Z,62.01
2019-04-07T05:10:45.646Z,61.52
2019-04-07T05:11:44.476Z,61.77
2019-04-07T05:12:43.754Z,61.77
2019-04-07T05:13:43.947Z,62.74
2019-04-07T05:14:44.379Z,62.26
2019-04-07T05:15:45.574Z,62.01
2019-04-07T05:16:45.414Z,70.07
2019-04-07T05:17:45.247Z,62.01
2019-04-07T05:18:44.976Z,62.50
2019-04-07T05:19:46.546Z,63.96
2019-04-07T05:20:45.550Z,62.26
2019-04-07T05:21:45.761Z,62.01
2019-04-07T05:22:45.329Z,62.50
2019-04-07T05:23:48.041Z,62.26
2019-04-07T05:24:46.682Z,62.01
2019-04-07T05:25:46.537Z,62.50
2019-04-07T05:26:47.698Z,62.50
2019-04-07T05:27:46.161Z,61.52
2019-04-07T05:28:47.121Z,61.77
2019-04-07T05:29:46.642Z,61.77
2019-04-07T05:30:46.903Z,61.52
2019-04-07T05:31:46.935Z,62.01
2019-04-07T05:32:47.714Z,61.52
2019-04-07T05:33:48.324Z,66.89
2019-04-07T05:34:49.045Z,62.26
2019-04-07T05:35:48.578Z,62.01
2019-04-07T05:36:51.207Z,61.77
2019-04-07T05:37:59.968Z,60.79
2019-04-07T05:38:49.958Z,61.04
2019-04-07T05:39:49.997Z,60.79
2019-04-07T05:40:50.028Z,60.30
2019-04-07T05:41:49.575Z,59.08
2019-04-07T05:42:53.137Z,59.81
2019-04-07T05:43:51.207Z,59.57
2019-04-07T05:44:50.663Z,59.33
2019-04-07T05:45:52.122Z,59.33
2019-04-07T05:46:51.734Z,59.81
2019-04-07T05:47:53.242Z,61.52
2019-04-07T05:48:52.737Z,62.74
2019-04-07T05:49:54.322Z,59.08
2019-04-07T05:50:52.728Z,58.11
2019-04-07T05:51:51.672Z,56.88
2019-04-07T05:52:52.091Z,55.91
2019-04-07T05:53:51.621Z,55.18
2019-04-07T05:54:51.506Z,54.20
2019-04-07T05:55:53.782Z,58.59
2019-04-07T05:56:52.647Z,58.84
2019-04-07T05:57:50.836Z,57.37
2019-04-07T05:58:51.651Z,56.40
2019-04-07T05:59:51.278Z,60.06
2019-04-07T06:00:51.315Z,58.11
2019-04-07T06:01:55.566Z,63.48
2019-04-07T06:02:51.659Z,59.57
2019-04-07T06:03:52.212Z,57.37
2019-04-07T06:04:52.464Z,57.62
2019-04-07T06:05:52.792Z,60.55
2019-04-07T06:06:55.002Z,56.88
2019-04-07T06:07:52.691Z,57.13
2019-04-07T06:08:53.012Z,56.64
2019-04-07T06:09:52.938Z,56.64
2019-04-07T06:10:57.540Z,75.20
2019-04-07T06:11:53.239Z,54.93
2019-04-07T06:12:53.223Z,57.62
2019-04-07T06:13:54.169Z,57.13
2019-04-07T06:14:53.514Z,57.13
2019-04-07T06:15:54.033Z,54.20
2019-04-07T06:16:55.477Z,54.69
2019-04-07T06:17:58.827Z,57.13
2019-04-07T06:18:54.188Z,57.86
2019-04-07T06:19:54.314Z,57.13
2019-04-07T06:20:54.513Z,55.66
2019-04-07T06:21:54.668Z,54.93
2019-04-07T06:22:54.843Z,62.50
2019-04-07T06:23:58.370Z,57.13
2019-04-07T06:24:55.158Z,55.18
2019-04-07T06:25:57.342Z,53.96
2019-04-07T06:26:55.481Z,55.66
2019-04-07T06:27:55.650Z,55.42
2019-04-07T06:28:58.471Z,54.69
2019-04-07T06:29:59.624Z,53.47
2019-04-07T06:30:59.411Z,67.14
2019-04-07T06:31:56.347Z,54.93
2019-04-07T06:32:56.970Z,56.15
2019-04-07T06:33:56.810Z,58.59
2019-04-07T06:34:56.831Z,54.44
2019-04-07T06:35:57.400Z,52.98
2019-04-07T06:36:58.126Z,53.22
2019-04-07T06:38:01.732Z,54.69
2019-04-07T06:38:58.147Z,53.22
2019-04-07T06:39:57.763Z,53.71
2019-04-07T06:41:00.884Z,52.98
2019-04-07T06:42:00.433Z,51.51
2019-04-07T06:42:58.143Z,55.91
2019-04-07T06:44:08.742Z,52.00
2019-04-07T06:45:00.397Z,55.91
2019-04-07T06:45:58.836Z,59.33
2019-04-07T06:47:01.458Z,56.64
2019-04-07T06:48:01.511Z,60.55
2019-04-07T06:48:59.316Z,56.88
2019-04-07T06:49:59.625Z,53.71
2019-04-07T06:51:00.507Z,55.91
2019-04-07T06:52:02.035Z,53.96
2019-04-07T06:52:59.928Z,53.96
2019-04-07T06:54:00.149Z,54.69
2019-04-07T06:55:00.272Z,56.40
2019-04-07T06:56:03.215Z,61.52
2019-04-07T06:57:05.020Z,53.22
2019-04-07T06:58:01.989Z,56.88
2019-04-07T06:59:01.038Z,52.00
2019-04-07T07:00:01.240Z,49.32
2019-04-07T07:01:03.295Z,55.91
2019-04-07T07:02:03.132Z,70.07
2019-04-07T07:03:04.203Z,48.83
2019-04-07T07:04:01.936Z,48.83
2019-04-07T07:05:02.923Z,49.56
2019-04-07T07:06:02.273Z,56.15
2019-04-07T07:07:03.309Z,56.15
2019-04-07T07:08:02.644Z,53.47
2019-04-07T07:09:02.994Z,53.22
2019-04-07T07:10:03.308Z,56.15
2019-04-07T07:11:03.197Z,56.40
2019-04-07T07:12:03.920Z,55.42
2019-04-07T07:13:09.595Z,57.13
2019-04-07T07:14:04.169Z,60.55
2019-04-07T07:15:04.527Z,56.40
2019-04-07T07:16:07.901Z,57.13
2019-04-07T07:17:04.242Z,60.06
2019-04-07T07:18:04.658Z,52.98
2019-04-07T07:19:05.121Z,54.69
2019-04-07T07:20:05.696Z,59.57
2019-04-07T07:21:05.288Z,58.59
2019-04-07T07:22:10.077Z,57.37
2019-04-07T07:23:05.884Z,57.13
2019-04-07T07:24:05.915Z,66.41
2019-04-07T07:25:05.630Z,56.40
2019-04-07T07:26:08.127Z,52.73
2019-04-07T07:27:09.379Z,61.77
2019-04-07T07:28:07.591Z,60.30
2019-04-07T07:29:06.754Z,57.37
2019-04-07T07:30:08.939Z,56.15
2019-04-07T07:31:07.803Z,56.15
2019-04-07T07:32:08.443Z,53.22
2019-04-07T07:33:09.994Z,57.37
2019-04-07T07:34:10.129Z,54.44
2019-04-07T07:35:07.928Z,57.62
2019-04-07T07:36:09.137Z,59.57
2019-04-07T07:37:08.389Z,59.08
2019-04-07T07:38:07.819Z,56.88
2019-04-07T07:39:11.425Z,56.88
2019-04-07T07:40:09.690Z,71.78
2019-04-07T07:41:08.837Z,61.04
2019-04-07T07:42:08.334Z,61.52
2019-04-07T07:43:10.763Z,57.62
2019-04-07T07:44:10.028Z,57.62
2019-04-07T07:45:12.950Z,56.88
2019-04-07T07:46:10.165Z,52.49
2019-04-07T07:47:10.182Z,51.51
2019-04-07T07:48:08.991Z,56.88
2019-04-07T07:49:09.404Z,56.15
2019-04-07T07:50:09.346Z,55.66
2019-04-07T07:51:12.874Z,55.91
2019-04-07T07:52:10.335Z,54.93
2019-04-07T07:53:10.528Z,58.35
2019-04-07T07:54:11.115Z,53.71
2019-04-07T07:55:10.944Z,52.98
2019-04-07T07:56:12.394Z,62.26
2019-04-07T07:57:13.412Z,56.40
2019-04-07T07:58:10.572Z,55.66
2019-04-07T07:59:11.074Z,59.33
2019-04-07T08:00:11.350Z,61.77
2019-04-07T08:01:13.538Z,58.11
2019-04-07T08:02:11.873Z,57.37
2019-04-07T08:03:12.054Z,58.59
2019-04-07T08:04:11.543Z,58.35
2019-04-07T08:05:12.336Z,55.42
2019-04-07T08:06:11.899Z,55.66
2019-04-07T08:07:15.495Z,55.18
2019-04-07T08:08:12.276Z,55.91
2019-04-07T08:09:15.238Z,55.42
2019-04-07T08:10:12.724Z,55.18
2019-04-07T08:11:15.327Z,52.73
2019-04-07T08:12:13.018Z,51.03
2019-04-07T08:13:13.171Z,58.11
2019-04-07T08:14:16.683Z,55.42
2019-04-07T08:15:13.806Z,54.93
2019-04-07T08:16:14.067Z,54.93
2019-04-07T08:17:14.963Z,54.93
2019-04-07T08:18:14.037Z,52.00
2019-04-07T08:19:14.189Z,60.06
2019-04-07T08:20:14.380Z,55.42
2019-04-07T08:21:16.565Z,54.93
2019-04-07T08:22:26.410Z,55.18
2019-04-07T08:23:15.486Z,55.42
2019-04-07T08:24:18.563Z,56.40
2019-04-07T08:25:15.329Z,59.33
2019-04-07T08:26:15.879Z,56.15
2019-04-07T08:27:16.233Z,55.42
2019-04-07T08:28:16.084Z,55.66
2019-04-07T08:29:15.822Z,55.42
2019-04-07T08:30:16.269Z,55.66
2019-04-07T08:31:18.963Z,55.42
2019-04-07T08:32:16.565Z,57.13
2019-04-07T08:33:16.873Z,56.15
2019-04-07T08:34:16.800Z,59.81
2019-04-07T08:35:17.558Z,60.55
2019-04-07T08:36:17.234Z,58.84
2019-04-07T08:37:17.880Z,60.06
2019-04-07T08:38:19.958Z,59.33
2019-04-07T08:39:23.402Z,56.88
2019-04-07T08:40:17.669Z,55.66
2019-04-07T08:41:18.060Z,55.91
2019-04-07T08:42:19.672Z,59.08
2019-04-07T08:43:21.906Z,71.53
2019-04-07T08:44:18.453Z,51.03
2019-04-07T08:45:18.929Z,54.44
2019-04-07T08:46:18.902Z,57.86
2019-04-07T08:47:21.888Z,80.32
2019-04-07T08:48:20.595Z,63.23
2019-04-07T08:49:23.385Z,62.99
2019-04-07T08:50:21.669Z,63.48
2019-04-07T08:51:20.073Z,60.30
2019-04-07T08:52:19.930Z,61.28
2019-04-07T08:53:24.129Z,58.11
2019-04-07T08:54:23.645Z,68.60
2019-04-07T08:55:21.579Z,66.65
2019-04-07T08:56:24.256Z,63.72
2019-04-07T08:57:22.672Z,62.74
2019-04-07T08:58:27.315Z,60.06
2019-04-07T08:59:21.942Z,66.16
2019-04-07T09:00:23.355Z,66.89
2019-04-07T09:01:22.590Z,67.38
2019-04-07T09:02:26.067Z,59.81
2019-04-07T09:03:21.995Z,54.93
2019-04-07T09:04:22.096Z,55.18
2019-04-07T09:05:26.873Z,55.42
2019-04-07T09:06:23.189Z,53.47
2019-04-07T09:07:24.309Z,59.08
2019-04-07T09:08:22.765Z,56.40
2019-04-07T09:09:32.524Z,55.66
2019-04-07T09:10:23.055Z,55.91
2019-04-07T09:11:23.657Z,54.93
2019-04-07T09:12:27.444Z,54.69
2019-04-07T09:13:24.070Z,62.01
2019-04-07T09:14:23.714Z,60.06
2019-04-07T09:15:23.901Z,54.69
2019-04-07T09:16:24.673Z,54.93
2019-04-07T09:17:32.253Z,56.40
2019-04-07T09:18:24.479Z,55.42
2019-04-07T09:19:25.153Z,62.26
2019-04-07T09:20:25.491Z,57.13
2019-04-07T09:21:35.220Z,54.20
2019-04-07T09:22:25.313Z,54.69
2019-04-07T09:23:27.039Z,58.59
2019-04-07T09:24:29.807Z,54.44
2019-04-07T09:25:26.141Z,55.42
2019-04-07T09:26:26.101Z,55.91
2019-04-07T09:27:26.683Z,52.00
2019-04-07T09:28:26.500Z,51.51
2019-04-07T09:29:28.188Z,57.13
2019-04-07T09:30:27.265Z,58.84
2019-04-07T09:31:26.779Z,55.18
2019-04-07T09:32:27.708Z,57.13
2019-04-07T09:33:28.611Z,59.08
2019-04-07T09:34:28.032Z,54.93
2019-04-07T09:35:27.540Z,55.42
2019-04-07T09:36:27.667Z,54.69
2019-04-07T09:37:28.411Z,54.44
2019-04-07T09:38:28.416Z,56.40
2019-04-07T09:39:31.357Z,54.44
2019-04-07T09:40:28.812Z,54.69
2019-04-07T09:41:29.518Z,54.20
2019-04-07T09:42:29.078Z,54.44
2019-04-07T09:43:30.609Z,53.96
2019-04-07T09:44:30.865Z,57.13
2019-04-07T09:45:29.677Z,62.01
2019-04-07T09:46:29.947Z,55.66
2019-04-07T09:47:29.427Z,55.42
2019-04-07T09:48:29.561Z,55.66
2019-04-07T09:49:29.990Z,55.66
2019-04-07T09:50:29.983Z,56.15
2019-04-07T09:51:30.904Z,55.42
2019-04-07T09:52:30.550Z,57.13
2019-04-07T09:53:30.588Z,57.86
2019-04-07T09:54:30.773Z,53.96
2019-04-07T09:55:31.116Z,55.18
2019-04-07T09:56:32.831Z,61.28
2019-04-07T09:57:31.486Z,61.28
2019-04-07T09:58:32.000Z,62.74
2019-04-07T09:59:31.904Z,54.44
2019-04-07T10:00:32.122Z,55.18
2019-04-07T10:01:32.943Z,54.20
2019-04-07T10:02:35.453Z,52.98
2019-04-07T10:03:32.627Z,52.25
2019-04-07T10:04:32.844Z,55.18
2019-04-07T10:05:33.034Z,54.20
2019-04-07T10:06:33.184Z,57.13
2019-04-07T10:07:33.421Z,54.93
2019-04-07T10:08:33.565Z,55.42
2019-04-07T10:09:33.737Z,55.42
2019-04-07T10:10:33.931Z,55.91
2019-04-07T10:11:34.071Z,55.18
2019-04-07T10:12:34.593Z,55.18
2019-04-07T10:13:34.470Z,55.18
2019-04-07T10:14:35.081Z,57.37
2019-04-07T10:15:35.269Z,54.44
2019-04-07T10:16:35.395Z,54.93
2019-04-07T10:17:35.141Z,56.15
2019-04-07T10:18:36.719Z,55.18
2019-04-07T10:19:36.230Z,54.93
2019-04-07T10:20:35.653Z,54.93
2019-04-07T10:21:36.115Z,55.91
2019-04-07T10:22:36.083Z,55.91
2019-04-07T10:23:36.466Z,57.37
2019-04-07T10:24:37.056Z,56.64
2019-04-07T10:25:36.859Z,55.42
2019-04-07T10:26:37.208Z,54.93
2019-04-07T10:27:37.067Z,53.22
2019-04-07T10:28:39.158Z,56.88
2019-04-07T10:29:37.690Z,54.69
2019-04-07T10:30:38.175Z,56.64
2019-04-07T10:31:37.895Z,56.40
2019-04-07T10:32:38.470Z,59.08
2019-04-07T10:33:38.251Z,51.51
2019-04-07T10:34:38.690Z,54.93
2019-04-07T10:35:38.722Z,54.20
2019-04-07T10:36:38.861Z,54.20
2019-04-07T10:37:39.012Z,59.08
2019-04-07T10:38:39.168Z,53.47
2019-04-07T10:39:39.868Z,53.71
2019-04-07T10:40:40.123Z,55.42
2019-04-07T10:41:39.844Z,55.66
2019-04-07T10:42:40.201Z,59.81
2019-04-07T10:43:40.505Z,56.88
2019-04-07T10:44:40.515Z,57.86
2019-04-07T10:45:40.624Z,57.62
2019-04-07T10:46:40.922Z,60.79
2019-04-07T10:47:41.207Z,56.64
2019-04-07T10:48:40.757Z,58.35
2019-04-07T10:49:41.087Z,59.57
2019-04-07T10:50:41.292Z,55.18
2019-04-07T10:51:42.036Z,54.69
2019-04-07T10:52:41.653Z,61.77
2019-04-07T10:53:41.967Z,54.93
2019-04-07T10:54:42.278Z,54.93
2019-04-07T10:55:43.052Z,55.42
2019-04-07T10:56:42.875Z,55.18
2019-04-07T10:57:43.634Z,54.93
2019-04-07T10:58:43.571Z,55.18
2019-04-07T10:59:42.780Z,56.15
2019-04-07T11:00:46.376Z,55.91
2019-04-07T11:01:43.367Z,55.66
2019-04-07T11:02:44.215Z,57.37
2019-04-07T11:03:44.309Z,59.08
2019-04-07T11:04:44.011Z,54.93
2019-04-07T11:05:44.733Z,55.66
2019-04-07T11:06:44.022Z,55.18
2019-04-07T11:07:44.226Z,55.91
2019-04-07T11:08:44.382Z,56.64
2019-04-07T11:09:45.064Z,56.40
2019-04-07T11:10:46.307Z,50.05
2019-04-07T11:11:47.856Z,53.47
2019-04-07T11:12:45.754Z,54.44
2019-04-07T11:13:45.782Z,56.64
2019-04-07T11:14:45.548Z,54.44
2019-04-07T11:15:45.597Z,55.91
2019-04-07T11:16:46.304Z,56.64
2019-04-07T11:17:45.908Z,57.37
2019-04-07T11:18:46.117Z,55.18
2019-04-07T11:19:46.282Z,55.42
2019-04-07T11:20:47.154Z,55.18
2019-04-07T11:21:46.790Z,54.93
2019-04-07T11:22:47.191Z,56.15
2019-04-07T11:23:47.186Z,55.18
2019-04-07T11:24:47.129Z,57.37
2019-04-07T11:25:47.855Z,55.91
2019-04-07T11:26:48.541Z,55.42
2019-04-07T11:27:48.413Z,54.69
2019-04-07T11:28:48.056Z,54.44
2019-04-07T11:29:48.516Z,54.20
2019-04-07T11:30:48.159Z,55.42
2019-04-07T11:31:48.454Z,54.93
2019-04-07T11:32:48.420Z,55.42
2019-04-07T11:33:48.486Z,54.93
2019-04-07T11:34:49.612Z,55.42
2019-04-07T11:35:48.843Z,55.66
2019-04-07T11:36:49.859Z,56.15
2019-04-07T11:37:49.536Z,55.91
2019-04-07T11:38:50.516Z,56.88
2019-04-07T11:39:49.915Z,55.18
2019-04-07T11:40:51.200Z,52.98
2019-04-07T11:41:49.801Z,51.51
2019-04-07T11:42:50.691Z,59.33
2019-04-07T11:43:50.147Z,54.93
2019-04-07T11:44:50.858Z,55.91
2019-04-07T11:45:58.485Z,56.40
2019-04-07T11:46:50.853Z,56.40
2019-04-07T11:47:50.941Z,56.15
2019-04-07T11:48:51.449Z,55.91
2019-04-07T11:49:51.252Z,63.72
2019-04-07T11:50:52.152Z,55.66
2019-04-07T11:51:52.299Z,55.66
2019-04-07T11:52:51.773Z,56.15
2019-04-07T11:53:52.040Z,57.37
2019-04-07T11:54:52.173Z,56.88
2019-04-07T11:55:53.162Z,58.35
2019-04-07T11:56:52.439Z,56.64
2019-04-07T11:58:07.404Z,56.15
2019-04-07T11:58:53.084Z,55.91
2019-04-07T11:59:53.986Z,59.81
2019-04-07T12:00:53.810Z,56.40
2019-04-07T12:01:53.151Z,57.13
2019-04-07T12:02:54.250Z,55.91
2019-04-07T12:03:54.710Z,55.91
2019-04-07T12:04:53.566Z,55.91
2019-04-07T12:05:53.958Z,57.13
2019-04-07T12:06:54.543Z,58.11
2019-04-07T12:07:57.179Z,58.35
2019-04-07T12:08:54.586Z,57.86
2019-04-07T12:09:55.194Z,56.88
2019-04-07T12:11:00.666Z,56.64
2019-04-07T12:11:54.867Z,56.15
2019-04-07T12:12:55.931Z,57.13
2019-04-07T12:13:55.163Z,57.86
2019-04-07T12:14:55.356Z,56.88
2019-04-07T12:15:56.819Z,57.37
2019-04-07T12:16:58.304Z,58.59
2019-04-07T12:17:55.770Z,57.37
2019-04-07T12:18:55.941Z,56.88
2019-04-07T12:19:57.128Z,57.13
2019-04-07T12:21:00.958Z,58.11
2019-04-07T12:21:56.377Z,58.11
2019-04-07T12:22:56.518Z,57.62
2019-04-07T12:23:56.642Z,57.13
2019-04-07T12:24:59.391Z,57.13
2019-04-07T12:25:59.015Z,57.37
2019-04-07T12:26:59.877Z,56.88
2019-04-07T12:27:58.057Z,56.40
2019-04-07T12:28:58.036Z,56.40
2019-04-07T12:29:58.154Z,56.64
2019-04-07T12:30:57.677Z,52.49
2019-04-07T12:31:57.854Z,54.69
2019-04-07T12:32:58.533Z,56.40
2019-04-07T12:33:58.514Z,56.64
2019-04-07T12:34:58.278Z,56.40
2019-04-07T12:35:58.624Z,57.37
2019-04-07T12:37:02.457Z,58.59
2019-04-07T12:37:59.508Z,57.13
2019-04-07T12:38:58.911Z,56.64
2019-04-07T12:39:59.892Z,57.62
2019-04-07T12:41:11.611Z,56.64
2019-04-07T12:41:59.524Z,60.30
2019-04-07T12:42:59.614Z,56.64
2019-04-07T12:44:00.516Z,59.81
2019-04-07T12:44:59.879Z,57.37
2019-04-07T12:46:00.166Z,56.88
2019-04-07T12:47:00.232Z,56.64
2019-04-07T12:48:00.361Z,57.13
2019-04-07T12:49:00.504Z,57.37
2019-04-07T12:50:00.702Z,56.88
2019-04-07T12:51:00.892Z,56.64
2019-04-07T12:52:01.105Z,57.62
2019-04-07T12:53:02.762Z,56.40
2019-04-07T12:54:01.887Z,56.40
2019-04-07T12:55:01.638Z,60.30